Share

Wilcox, NE (68982)

Brewster (KHDE) Elev 2310 ft | 40.45 °N, 99.34 °W | Change Station

Current weather conditions updated 18 minutes ago

Clear
Clear
62 °F
Feels Like 62 °F
N
8
Wind Variable Wind from South
Sunrise 6:50 AM
Sunset 8:20 PM
Moon Waning Gibbous

Tomorrow is forecast to be Cooler than today.

Pressure 29.95 in
Visibility 10.0 miles
Clouds Clear
Dew Point 53 °F
Humidity 72%
Rainfall 0.00 in
Snow Depth Not available.
UV 0 out of 16
Pollen 7.80 out of 12
Air Quality Not available.
Flu Activity Sporadic
METAR KHDE 210255Z AUTO 19007KT 10SM CLR 17/12 A2995 RMK AO2 T01670116

More Conditions Fewer Conditions

Pressure 29.95 in
Visibility 10.0 miles
Clouds Clear
Dew Point 53 °F
Humidity 72%
Rainfall 0.00 in
Snow Depth Not available.
UV 0 out of 16
Pollen 7.80 out of 12
Air Quality Not available.
Flu Activity Sporadic
METAR KHDE 210255Z AUTO 19007KT 10SM CLR 17/12 A2995 RMK AO2 T01670116

More Conditions Fewer Conditions

10-Day Weather Forecast

Almanac

Astronomy

Apr. 20, 2014 Rise Set
Actual Time 6:50 AM CDT 8:20 PM CDT
Civil Twilight 6:22 AM CDT 8:49 PM CDT
Nautical Twilight 5:47 AM CDT 9:23 PM CDT
Astronomical Twilight 5:11 AM CDT 10:00 PM CDT
Moon 1:02 AM CDT (4/20) 11:12 AM CDT (4/20)
Length of Visible Light 14h 27m
Length of Day
13h 30m
Tomorrow will be 2m 28s longer.
Waning Gibbous, 64% of the Moon is Illuminated
Today
Waning Gibbous
Apr 22
Last Quarter
Apr 29
New
May 6
First Quarter
May 14
Full

Today's Extremes

State Highs State Lows

Community

  • Sun Pillar and Geese
    Sun Pillar and Geese
  • Showers on the Way
    Showers on the Way
  • Easter Morning Fog
    Easter Morning Fog
  • Easter Dance
    Easter Dance
  • spring skiing mount Baker WA
    spring skiing mount Baker WA

WunderPhotos

Upload Photos

1,703,542 photos uploaded!

WunderBlogs® & News

Nearby

Snow Depth

Station Depth Elevation
No new snow has been reported.

Coastal Water Temperatures

Place Temperature
No Stations Reporting

Earthquake Activity

City Distance Mag. Time & Date
No recent earthquake activity has been reported nearby.
Minimum magnitude displayed is 2.5.

Nearby Weather Stations

Station Location Temp. Dew Point Humidity Wind Precip. Elev Updated Type
Target Hill, Kearney, NE 62.2 °F 55 °F 78% SSE  at  5.9 mph 0.00 in / hr 2130 ft 10:13 PM CDT Rapid Fire
Kuehn International Airport, Heartwell, NE 62.4 °F 54 °F 75% SE  at  8.0 mph 0.00 in / hr 2083 ft 10:10 PM CDT Normal
MesoWest ODESS1 , Odessa, NE 67 °F - - North  at  - 0.00 in / hr 2215 ft 9:00 PM CDT MADIS
Regency, Kearney, NE 62.5 °F 54 °F 74% SSE  at  5.2 mph 0.00 in / hr 2224 ft 10:13 PM CDT Rapid Fire
Near 14th and K, Franklin, NE 61.9 °F 51 °F 68% WNW  at  6.9 mph 0.00 in / hr 1850 ft 10:13 PM CDT Rapid Fire
MesoWest OPTIC1 , Kearney, NE 67 °F - - North  at  - 0.00 in / hr 2119 ft 9:00 PM CDT MADIS

Show More Stations Show Fewer Stations

What do you think?

We're not finished. Please let us know what you like, what you don't like, and what you are still missing.